createdAt,value
2023-09-08T00:03:43.660Z,17.09
2023-09-08T00:07:46.674Z,16.94
2023-09-08T00:12:02.773Z,16.90
2023-09-08T00:16:05.796Z,16.88
2023-09-08T00:20:11.801Z,16.79
2023-09-08T00:24:14.665Z,16.70
2023-09-08T00:28:17.472Z,16.62
2023-09-08T00:32:20.356Z,16.58
2023-09-08T00:41:02.271Z,16.34
2023-09-08T00:45:11.988Z,16.35
2023-09-08T00:49:16.740Z,16.39
2023-09-08T00:53:40.023Z,16.43
2023-09-08T00:57:54.461Z,16.46
2023-09-08T01:01:59.819Z,16.45
2023-09-08T01:06:07.646Z,16.48
2023-09-08T01:10:11.774Z,16.45
2023-09-08T01:14:15.831Z,16.40
2023-09-08T01:18:19.606Z,16.35
2023-09-08T01:22:31.285Z,16.29
2023-09-08T01:26:41.779Z,16.28
2023-09-08T01:30:47.656Z,16.23
2023-09-08T01:34:54.604Z,16.21
2023-09-08T01:39:01.325Z,16.21
2023-09-08T01:43:08.382Z,16.20
2023-09-08T01:47:12.606Z,16.17
2023-09-08T01:51:19.050Z,16.13
2023-09-08T01:55:23.415Z,16.10
2023-09-08T01:59:27.843Z,15.99
2023-09-08T02:03:44.648Z,15.85
2023-09-08T02:07:49.150Z,15.83
2023-09-08T02:11:53.349Z,15.84
2023-09-08T02:15:59.961Z,15.77
2023-09-08T02:20:04.886Z,15.66
2023-09-08T02:24:09.970Z,15.56
2023-09-08T02:28:14.741Z,15.52
2023-09-08T02:32:19.029Z,15.54
2023-09-08T02:40:48.414Z,15.57
2023-09-08T02:44:54.464Z,15.58
2023-09-08T02:49:00.657Z,15.57
2023-09-08T02:53:10.220Z,15.60
2023-09-08T02:57:17.284Z,15.54
2023-09-08T03:01:22.057Z,15.47
2023-09-08T03:05:33.681Z,15.43
2023-09-08T03:09:37.221Z,15.37
2023-09-08T03:13:41.661Z,15.24
2023-09-08T03:17:50.611Z,15.19
2023-09-08T03:21:55.453Z,15.07
2023-09-08T03:26:12.151Z,14.85
2023-09-08T03:30:16.010Z,14.67
2023-09-08T03:34:22.150Z,14.61
2023-09-08T03:38:26.212Z,14.65
2023-09-08T03:42:30.326Z,14.67
2023-09-08T03:46:34.100Z,14.70
2023-09-08T03:50:39.757Z,14.79
2023-09-08T03:54:43.315Z,14.84
2023-09-08T03:58:47.012Z,14.86
2023-09-08T04:02:51.702Z,14.75
2023-09-08T04:06:55.554Z,14.52
2023-09-08T04:10:59.273Z,14.42
2023-09-08T04:15:02.812Z,14.43
2023-09-08T04:19:08.548Z,14.40
2023-09-08T04:23:15.394Z,14.45
2023-09-08T04:27:22.750Z,14.53
2023-09-08T04:31:29.370Z,14.58
2023-09-08T04:35:33.332Z,14.62
2023-09-08T04:39:38.496Z,14.63
2023-09-08T04:43:41.953Z,14.63
2023-09-08T04:47:45.669Z,14.91
2023-09-08T04:51:49.200Z,15.51
2023-09-08T04:55:52.928Z,16.08
2023-09-08T04:59:57.081Z,16.57
2023-09-08T05:04:01.306Z,17.14
2023-09-08T05:08:05.564Z,17.81
2023-09-08T05:12:09.372Z,18.51
2023-09-08T05:16:13.847Z,19.18
2023-09-08T05:20:17.748Z,19.72
2023-09-08T05:24:22.271Z,20.23
2023-09-08T05:28:26.971Z,20.68
2023-09-08T05:32:30.977Z,21.00
2023-09-08T05:36:37.450Z,21.33
2023-09-08T05:40:41.969Z,21.60
2023-09-08T05:44:49.245Z,21.67
2023-09-08T05:48:55.243Z,21.75
2023-09-08T05:53:02.013Z,21.92
2023-09-08T05:57:06.309Z,21.96
2023-09-08T06:01:10.355Z,22.06
2023-09-08T06:05:17.114Z,22.13
2023-09-08T06:09:21.467Z,22.03
2023-09-08T06:13:28.296Z,21.95
2023-09-08T06:17:32.179Z,21.88
2023-09-08T06:21:42.367Z,21.83
2023-09-08T06:25:46.349Z,21.58
2023-09-08T06:29:52.812Z,21.40
2023-09-08T06:33:58.371Z,21.34
2023-09-08T06:38:02.754Z,21.37
2023-09-08T06:42:07.006Z,21.56
2023-09-08T06:46:23.510Z,21.36
2023-09-08T06:50:29.447Z,21.02
2023-09-08T06:54:34.791Z,20.89
2023-09-08T06:58:40.477Z,20.85
2023-09-08T07:02:45.842Z,21.03
2023-09-08T07:06:56.184Z,21.25
2023-09-08T07:11:02.302Z,21.41
2023-09-08T07:15:17.184Z,21.62
2023-09-08T07:19:22.110Z,21.78
2023-09-08T07:23:28.484Z,21.98
2023-09-08T07:27:35.364Z,22.08
2023-09-08T07:31:44.422Z,22.22
2023-09-08T07:35:59.152Z,22.24
2023-09-08T07:40:05.292Z,22.38
2023-09-08T07:44:10.112Z,22.65
2023-09-08T07:48:15.109Z,22.81
2023-09-08T07:52:19.791Z,22.97
2023-09-08T07:56:25.389Z,23.07
2023-09-08T08:00:35.684Z,23.19
2023-09-08T08:04:44.160Z,23.38
2023-09-08T08:08:50.232Z,23.60
2023-09-08T08:12:55.899Z,23.70
2023-09-08T08:17:05.666Z,23.82
2023-09-08T08:30:04.403Z,24.15
2023-09-08T08:34:07.421Z,24.25
2023-09-08T08:38:38.002Z,24.32
2023-09-08T08:42:41.400Z,24.43
2023-09-08T08:46:46.332Z,24.48
2023-09-08T08:50:49.442Z,24.56
2023-09-08T08:54:52.311Z,24.55
2023-09-08T08:58:57.631Z,24.65
2023-09-08T09:03:14.027Z,24.66
2023-09-08T09:07:20.142Z,24.82
2023-09-08T09:11:23.176Z,24.95
2023-09-08T09:15:32.500Z,25.08
2023-09-08T09:19:38.490Z,25.32
2023-09-08T09:23:41.257Z,25.45
2023-09-08T09:27:46.412Z,25.49
2023-09-08T09:31:56.470Z,25.47
2023-09-08T09:36:00.633Z,25.62
2023-09-08T09:40:06.729Z,25.73
2023-09-08T09:44:10.415Z,25.88
2023-09-08T09:48:13.588Z,25.97
2023-09-08T09:52:23.605Z,25.96
2023-09-08T09:56:52.927Z,26.00
2023-09-08T10:00:55.882Z,26.11
2023-09-08T10:05:10.705Z,26.21
2023-09-08T10:09:15.060Z,26.31
2023-09-08T10:13:23.760Z,26.44
2023-09-08T10:17:31.455Z,26.60
2023-09-08T10:21:37.363Z,26.74
2023-09-08T10:25:43.566Z,26.81
2023-09-08T10:29:46.805Z,26.80
2023-09-08T10:33:50.092Z,26.87
2023-09-08T10:38:12.986Z,26.85
2023-09-08T10:58:04.833Z,27.22
2023-09-08T11:02:08.253Z,27.37
2023-09-08T11:06:12.651Z,27.47
2023-09-08T11:10:16.043Z,27.45
2023-09-08T11:14:19.445Z,27.54
2023-09-08T11:18:29.888Z,27.53
2023-09-08T11:22:33.376Z,27.67
2023-09-08T11:26:36.938Z,27.90
2023-09-08T11:30:43.721Z,28.08
2023-09-08T11:34:47.049Z,28.24
2023-09-08T11:38:50.642Z,28.47
2023-09-08T11:42:55.045Z,28.64
2023-09-08T11:46:59.169Z,28.78
2023-09-08T11:51:02.450Z,28.93
2023-09-08T11:55:07.580Z,28.98
2023-09-08T11:59:11.650Z,29.02
2023-09-08T12:03:18.731Z,29.13
2023-09-08T12:07:22.682Z,29.23
2023-09-08T12:11:26.094Z,29.30
2023-09-08T12:15:35.561Z,29.32
2023-09-08T12:19:38.896Z,29.39
2023-09-08T12:23:52.544Z,29.37
2023-09-08T12:27:56.502Z,29.44
2023-09-08T12:32:02.097Z,29.48
2023-09-08T12:36:18.553Z,29.55
2023-09-08T12:40:22.709Z,29.49
2023-09-08T12:44:26.322Z,29.62
2023-09-08T12:48:29.736Z,29.64
2023-09-08T12:52:33.490Z,29.70
2023-09-08T12:56:36.761Z,29.78
2023-09-08T13:00:39.935Z,29.84
2023-09-08T13:04:43.130Z,29.87
2023-09-08T13:08:46.405Z,29.89
2023-09-08T13:12:52.842Z,29.91
2023-09-08T13:16:56.700Z,29.94
2023-09-08T13:21:00.019Z,29.93
2023-09-08T13:25:03.387Z,29.92
2023-09-08T13:29:06.986Z,30.00
2023-09-08T13:33:10.431Z,30.03
2023-09-08T13:37:16.536Z,30.01
2023-09-08T13:41:19.916Z,29.99
2023-09-08T13:45:24.266Z,29.97
2023-09-08T13:49:30.374Z,29.97
2023-09-08T13:53:43.171Z,29.97
2023-09-08T13:57:50.441Z,29.91
2023-09-08T14:02:17.449Z,29.86
2023-09-08T14:06:21.710Z,29.85
2023-09-08T14:10:39.089Z,29.86
2023-09-08T14:14:45.092Z,29.85
2023-09-08T14:18:48.718Z,29.85
2023-09-08T14:22:52.018Z,29.88
2023-09-08T14:26:55.696Z,29.85
2023-09-08T14:30:59.270Z,29.82
2023-09-08T14:35:02.820Z,29.79
2023-09-08T14:39:06.377Z,29.81
2023-09-08T14:43:09.770Z,29.79
2023-09-08T14:47:14.086Z,29.87
2023-09-08T14:51:17.807Z,29.88
2023-09-08T14:55:21.901Z,29.81
2023-09-08T14:59:25.432Z,29.79
2023-09-08T15:03:28.867Z,29.77
2023-09-08T15:07:33.730Z,29.77
2023-09-08T15:11:39.511Z,29.72
2023-09-08T15:15:42.896Z,29.67
2023-09-08T15:19:46.311Z,29.60
2023-09-08T15:23:49.712Z,29.54
2023-09-08T15:27:54.339Z,29.48
2023-09-08T15:31:57.729Z,29.46
2023-09-08T15:36:01.238Z,29.42
2023-09-08T15:40:05.369Z,29.32
2023-09-08T15:44:09.033Z,29.25
2023-09-08T15:48:12.671Z,29.11
2023-09-08T15:52:17.230Z,29.01
2023-09-08T15:56:20.695Z,28.92
2023-09-08T16:00:24.879Z,28.82
2023-09-08T16:04:28.478Z,28.67
2023-09-08T16:08:33.633Z,28.53
2023-09-08T16:12:39.887Z,28.32
2023-09-08T16:16:43.389Z,28.15
2023-09-08T16:20:46.728Z,27.93
2023-09-08T16:24:50.467Z,27.78
2023-09-08T16:28:53.861Z,27.62
2023-09-08T16:32:57.340Z,27.44
2023-09-08T16:37:00.693Z,27.28
2023-09-08T16:41:04.161Z,27.15
2023-09-08T16:45:07.856Z,26.95
2023-09-08T16:49:11.314Z,26.78
2023-09-08T16:53:14.719Z,26.58
2023-09-08T16:57:18.715Z,26.37
2023-09-08T17:01:26.097Z,26.20
2023-09-08T17:05:30.113Z,26.04
2023-09-08T17:09:33.517Z,25.90
2023-09-08T17:13:37.141Z,25.77
2023-09-08T17:17:43.549Z,25.59
2023-09-08T17:21:47.325Z,25.42
2023-09-08T17:25:52.094Z,25.26
2023-09-08T17:29:55.364Z,25.08
2023-09-08T17:33:58.644Z,24.90
2023-09-08T17:38:01.854Z,24.75
2023-09-08T17:42:05.214Z,24.60
2023-09-08T17:46:08.664Z,24.45
2023-09-08T17:50:11.961Z,24.26
2023-09-08T17:54:15.147Z,24.11
2023-09-08T17:58:18.326Z,23.93
2023-09-08T18:02:21.617Z,23.78
2023-09-08T18:06:25.519Z,23.68
2023-09-08T18:10:28.747Z,23.58
2023-09-08T18:14:32.159Z,23.48
2023-09-08T18:18:35.458Z,23.39
2023-09-08T18:22:38.826Z,23.28
2023-09-08T18:26:45.151Z,23.19
2023-09-08T18:30:51.900Z,23.12
2023-09-08T18:34:55.297Z,23.03
2023-09-08T18:39:00.446Z,22.92
2023-09-08T18:43:04.299Z,22.77
2023-09-08T18:47:07.798Z,22.56
2023-09-08T18:51:11.695Z,22.38
2023-09-08T18:55:20.174Z,22.27
2023-09-08T18:59:23.688Z,22.12
2023-09-08T19:03:29.412Z,21.95
2023-09-08T19:07:35.288Z,21.76
2023-09-08T19:11:38.578Z,21.59
2023-09-08T19:15:42.513Z,21.46
2023-09-08T19:19:45.985Z,21.38
2023-09-08T19:23:51.221Z,21.34
2023-09-08T19:27:57.759Z,21.27
2023-09-08T19:32:08.338Z,21.21
2023-09-08T19:36:11.823Z,21.10
2023-09-08T19:40:15.039Z,21.01
2023-09-08T19:44:18.211Z,20.92
2023-09-08T19:48:21.332Z,20.85
2023-09-08T19:52:27.260Z,20.82
2023-09-08T19:56:33.023Z,20.80
2023-09-08T20:00:39.372Z,20.74
2023-09-08T20:04:46.677Z,20.65
2023-09-08T20:08:51.889Z,20.57
2023-09-08T20:12:57.994Z,20.49
2023-09-08T20:17:01.397Z,20.43
2023-09-08T20:21:06.529Z,20.35
2023-09-08T20:25:10.895Z,20.29
2023-09-08T20:29:14.376Z,20.23
2023-09-08T20:33:18.440Z,20.19
2023-09-08T20:37:22.004Z,20.10
2023-09-08T20:41:25.148Z,20.07
2023-09-08T20:45:28.369Z,20.07
2023-09-08T20:49:31.923Z,19.99
2023-09-08T20:53:37.468Z,19.87
2023-09-08T20:57:40.833Z,19.78
2023-09-08T21:01:43.920Z,19.73
2023-09-08T21:05:47.061Z,19.72
2023-09-08T21:09:50.114Z,19.71
2023-09-08T21:13:53.085Z,19.66
2023-09-08T21:17:56.088Z,19.62
2023-09-08T21:21:59.373Z,19.52
2023-09-08T21:26:05.451Z,19.46
2023-09-08T21:30:08.766Z,19.44
2023-09-08T21:34:11.896Z,19.40
2023-09-08T21:38:15.051Z,19.25
2023-09-08T21:42:18.231Z,19.18
2023-09-08T21:46:21.504Z,19.16
2023-09-08T21:50:24.555Z,19.13
2023-09-08T21:54:27.664Z,19.11
2023-09-08T21:58:31.231Z,19.04
2023-09-08T22:02:34.879Z,19.00
2023-09-08T22:06:38.274Z,18.82
2023-09-08T22:10:41.335Z,18.71
2023-09-08T22:14:44.422Z,18.68
2023-09-08T22:18:49.268Z,18.63
2023-09-08T22:22:53.059Z,18.48
2023-09-08T22:26:56.526Z,18.34
2023-09-08T22:30:59.610Z,18.22
2023-09-08T22:35:02.916Z,18.16
2023-09-08T22:39:07.377Z,18.07
2023-09-08T22:43:10.469Z,18.01
2023-09-08T22:47:13.581Z,17.99
2023-09-08T22:51:16.927Z,17.94
2023-09-08T22:55:25.826Z,17.95
2023-09-08T22:59:29.450Z,17.99
2023-09-08T23:03:32.765Z,18.05
2023-09-08T23:07:36.277Z,18.02
2023-09-08T23:11:39.427Z,18.00
2023-09-08T23:15:42.599Z,17.97
2023-09-08T23:19:45.852Z,17.95
2023-09-08T23:23:48.980Z,17.98
2023-09-08T23:27:52.109Z,18.01
2023-09-08T23:31:57.548Z,18.02
2023-09-08T23:36:00.668Z,18.03
2023-09-08T23:40:06.277Z,18.02
2023-09-08T23:44:09.424Z,18.02
2023-09-08T23:48:12.594Z,18.02
2023-09-08T23:52:15.547Z,18.01
2023-09-08T23:56:18.577Z,18.02
